sensor_id;sensor_type;location;lat;lon;timestamp;temperature;humidity
7686;DHT22;3885;51.474;-2.576;2022-10-16T00:06:01;11.90;99.90
7686;DHT22;3885;51.474;-2.576;2022-10-16T00:08:28;11.90;99.90
7686;DHT22;3885;51.474;-2.576;2022-10-16T00:10:59;11.80;99.90
7686;DHT22;3885;51.474;-2.576;2022-10-16T00:13:27;11.80;99.90
7686;DHT22;3885;51.474;-2.576;2022-10-16T00:20:51;11.90;99.90
7686;DHT22;3885;51.474;-2.576;2022-10-16T00:25:54;11.80;99.90
7686;DHT22;3885;51.474;-2.576;2022-10-16T00:28:22;11.80;99.90
7686;DHT22;3885;51.474;-2.576;2022-10-16T00:30:49;11.80;99.90
7686;DHT22;3885;51.474;-2.576;2022-10-16T00:33:17;11.80;99.90
7686;DHT22;3885;51.474;-2.576;2022-10-16T00:38:11;11.80;99.90
7686;DHT22;3885;51.474;-2.576;2022-10-16T00:40:39;11.80;99.90
7686;DHT22;3885;51.474;-2.576;2022-10-16T00:43:12;11.80;99.90
7686;DHT22;3885;51.474;-2.576;2022-10-16T00:48:11;11.90;99.90
7686;DHT22;3885;51.474;-2.576;2022-10-16T00:50:41;11.90;99.90
7686;DHT22;3885;51.474;-2.576;2022-10-16T00:53:10;11.90;99.90
7686;DHT22;3885;51.474;-2.576;2022-10-16T00:55:38;11.90;99.90
7686;DHT22;3885;51.474;-2.576;2022-10-16T01:00:33;11.90;99.90
7686;DHT22;3885;51.474;-2.576;2022-10-16T01:03:02;11.90;99.90
7686;DHT22;3885;51.474;-2.576;2022-10-16T01:08:07;11.90;99.90
7686;DHT22;3885;51.474;-2.576;2022-10-16T01:10:39;11.90;99.90
7686;DHT22;3885;51.474;-2.576;2022-10-16T01:13:09;11.90;99.90
7686;DHT22;3885;51.474;-2.576;2022-10-16T01:15:40;11.90;99.90
7686;DHT22;3885;51.474;-2.576;2022-10-16T01:18:11;11.80;99.90
7686;DHT22;3885;51.474;-2.576;2022-10-16T01:23:20;11.80;99.90
7686;DHT22;3885;51.474;-2.576;2022-10-16T01:26:19;11.80;99.90
7686;DHT22;3885;51.474;-2.576;2022-10-16T01:31:21;11.70;99.90
7686;DHT22;3885;51.474;-2.576;2022-10-16T01:33:53;11.70;99.90
7686;DHT22;3885;51.474;-2.576;2022-10-16T01:38:54;11.70;99.90
7686;DHT22;3885;51.474;-2.576;2022-10-16T01:41:26;11.60;99.90
7686;DHT22;3885;51.474;-2.576;2022-10-16T01:44:01;11.60;99.90
7686;DHT22;3885;51.474;-2.576;2022-10-16T01:46:31;11.60;99.90
7686;DHT22;3885;51.474;-2.576;2022-10-16T01:48:59;11.60;99.90
7686;DHT22;3885;51.474;-2.576;2022-10-16T01:53:57;11.50;99.90
7686;DHT22;3885;51.474;-2.576;2022-10-16T01:58:57;11.60;99.90
7686;DHT22;3885;51.474;-2.576;2022-10-16T02:01:27;11.50;99.90
7686;DHT22;3885;51.474;-2.576;2022-10-16T02:03:58;11.50;99.90
7686;DHT22;3885;51.474;-2.576;2022-10-16T02:06:26;11.50;99.90
7686;DHT22;3885;51.474;-2.576;2022-10-16T02:08:53;11.50;99.90
7686;DHT22;3885;51.474;-2.576;2022-10-16T02:16:19;11.50;99.90
7686;DHT22;3885;51.474;-2.576;2022-10-16T02:18:46;11.40;99.90
7686;DHT22;3885;51.474;-2.576;2022-10-16T02:21:17;11.40;99.90
7686;DHT22;3885;51.474;-2.576;2022-10-16T02:23:51;11.40;99.90
7686;DHT22;3885;51.474;-2.576;2022-10-16T02:26:31;11.40;99.90
7686;DHT22;3885;51.474;-2.576;2022-10-16T02:31:35;11.40;99.90
7686;DHT22;3885;51.474;-2.576;2022-10-16T02:34:04;11.40;99.90
7686;DHT22;3885;51.474;-2.576;2022-10-16T02:36:33;11.30;99.90
7686;DHT22;3885;51.474;-2.576;2022-10-16T02:39:02;11.40;99.90
7686;DHT22;3885;51.474;-2.576;2022-10-16T02:43:58;11.40;99.90
7686;DHT22;3885;51.474;-2.576;2022-10-16T02:48:53;11.30;99.90
7686;DHT22;3885;51.474;-2.576;2022-10-16T02:51:20;11.30;99.90
7686;DHT22;3885;51.474;-2.576;2022-10-16T02:53:47;11.30;99.90
7686;DHT22;3885;51.474;-2.576;2022-10-16T02:58:41;11.30;99.90
7686;DHT22;3885;51.474;-2.576;2022-10-16T03:03:35;11.20;99.90
7686;DHT22;3885;51.474;-2.576;2022-10-16T03:10:58;11.20;99.90
7686;DHT22;3885;51.474;-2.576;2022-10-16T03:15:52;11.20;99.90
7686;DHT22;3885;51.474;-2.576;2022-10-16T03:20:46;11.20;99.90
7686;DHT22;3885;51.474;-2.576;2022-10-16T03:23:15;11.10;99.90
7686;DHT22;3885;51.474;-2.576;2022-10-16T03:25:42;11.10;99.90
7686;DHT22;3885;51.474;-2.576;2022-10-16T03:35:32;11.20;99.90
7686;DHT22;3885;51.474;-2.576;2022-10-16T03:37:59;11.20;99.90
7686;DHT22;3885;51.474;-2.576;2022-10-16T03:40:27;11.20;99.90
7686;DHT22;3885;51.474;-2.576;2022-10-16T03:42:55;11.30;99.90
7686;DHT22;3885;51.474;-2.576;2022-10-16T03:47:50;11.10;99.90
7686;DHT22;3885;51.474;-2.576;2022-10-16T03:52:44;11.10;99.90
7686;DHT22;3885;51.474;-2.576;2022-10-16T03:55:11;11.10;99.90
7686;DHT22;3885;51.474;-2.576;2022-10-16T03:57:39;11.00;99.90
7686;DHT22;3885;51.474;-2.576;2022-10-16T04:00:07;10.90;99.90
7686;DHT22;3885;51.474;-2.576;2022-10-16T04:02:34;10.90;99.90
7686;DHT22;3885;51.474;-2.576;2022-10-16T04:05:01;10.90;99.90
7686;DHT22;3885;51.474;-2.576;2022-10-16T04:07:27;10.80;99.90
7686;DHT22;3885;51.474;-2.576;2022-10-16T04:14:52;10.80;99.90
7686;DHT22;3885;51.474;-2.576;2022-10-16T04:17:19;10.70;99.90
7686;DHT22;3885;51.474;-2.576;2022-10-16T04:19:46;10.60;99.90
7686;DHT22;3885;51.474;-2.576;2022-10-16T04:29:34;10.50;99.90
7686;DHT22;3885;51.474;-2.576;2022-10-16T04:32:03;10.60;99.90
7686;DHT22;3885;51.474;-2.576;2022-10-16T04:34:30;10.60;99.90
7686;DHT22;3885;51.474;-2.576;2022-10-16T04:36:57;10.50;99.90
7686;DHT22;3885;51.474;-2.576;2022-10-16T04:46:45;10.60;99.90
7686;DHT22;3885;51.474;-2.576;2022-10-16T04:49:13;10.60;99.90
7686;DHT22;3885;51.474;-2.576;2022-10-16T04:51:40;10.60;99.90
7686;DHT22;3885;51.474;-2.576;2022-10-16T04:56:34;10.70;99.90
7686;DHT22;3885;51.474;-2.576;2022-10-16T05:01:35;10.80;99.90
7686;DHT22;3885;51.474;-2.576;2022-10-16T05:06:31;10.70;99.90
7686;DHT22;3885;51.474;-2.576;2022-10-16T05:11:25;10.70;99.90
7686;DHT22;3885;51.474;-2.576;2022-10-16T05:16:19;10.60;99.90
7686;DHT22;3885;51.474;-2.576;2022-10-16T05:21:13;10.50;99.90
7686;DHT22;3885;51.474;-2.576;2022-10-16T05:23:41;10.50;99.90
7686;DHT22;3885;51.474;-2.576;2022-10-16T05:26:08;10.50;99.90
7686;DHT22;3885;51.474;-2.576;2022-10-16T05:31:05;10.40;99.90
7686;DHT22;3885;51.474;-2.576;2022-10-16T05:36:01;10.30;99.90
7686;DHT22;3885;51.474;-2.576;2022-10-16T05:38:28;10.20;99.90
7686;DHT22;3885;51.474;-2.576;2022-10-16T05:40:56;10.10;99.90
7686;DHT22;3885;51.474;-2.576;2022-10-16T05:43:23;10.10;99.90
7686;DHT22;3885;51.474;-2.576;2022-10-16T05:45:54;10.10;99.90
7686;DHT22;3885;51.474;-2.576;2022-10-16T05:48:22;10.00;99.90
7686;DHT22;3885;51.474;-2.576;2022-10-16T05:53:16;9.90;99.90
7686;DHT22;3885;51.474;-2.576;2022-10-16T05:55:43;9.90;99.90
7686;DHT22;3885;51.474;-2.576;2022-10-16T05:58:11;9.90;99.90
7686;DHT22;3885;51.474;-2.576;2022-10-16T06:00:38;9.80;99.90
7686;DHT22;3885;51.474;-2.576;2022-10-16T06:03:05;9.70;99.90
7686;DHT22;3885;51.474;-2.576;2022-10-16T06:05:32;9.60;99.90
7686;DHT22;3885;51.474;-2.576;2022-10-16T06:10:26;9.50;99.90
7686;DHT22;3885;51.474;-2.576;2022-10-16T06:15:23;9.50;99.90
7686;DHT22;3885;51.474;-2.576;2022-10-16T06:17:49;9.50;99.90
7686;DHT22;3885;51.474;-2.576;2022-10-16T06:20:16;9.50;99.90
7686;DHT22;3885;51.474;-2.576;2022-10-16T06:25:10;9.50;99.90
7686;DHT22;3885;51.474;-2.576;2022-10-16T06:27:39;9.50;99.90
7686;DHT22;3885;51.474;-2.576;2022-10-16T06:30:07;9.50;99.90
7686;DHT22;3885;51.474;-2.576;2022-10-16T06:32:36;9.50;99.90
7686;DHT22;3885;51.474;-2.576;2022-10-16T06:35:03;9.50;99.90
7686;DHT22;3885;51.474;-2.576;2022-10-16T06:39:57;9.40;99.90
7686;DHT22;3885;51.474;-2.576;2022-10-16T06:44:52;9.30;99.90
7686;DHT22;3885;51.474;-2.576;2022-10-16T06:49:48;9.30;99.90
7686;DHT22;3885;51.474;-2.576;2022-10-16T06:52:15;9.20;99.90
7686;DHT22;3885;51.474;-2.576;2022-10-16T06:54:42;9.20;99.90
7686;DHT22;3885;51.474;-2.576;2022-10-16T06:59:36;9.10;99.90
7686;DHT22;3885;51.474;-2.576;2022-10-16T07:07:00;9.00;99.90
7686;DHT22;3885;51.474;-2.576;2022-10-16T07:11:54;8.90;99.90
7686;DHT22;3885;51.474;-2.576;2022-10-16T07:14:21;8.80;99.90
7686;DHT22;3885;51.474;-2.576;2022-10-16T07:21:43;8.70;99.90
7686;DHT22;3885;51.474;-2.576;2022-10-16T07:24:14;8.70;99.90
7686;DHT22;3885;51.474;-2.576;2022-10-16T07:26:42;8.70;99.90
7686;DHT22;3885;51.474;-2.576;2022-10-16T07:29:12;8.70;99.90
7686;DHT22;3885;51.474;-2.576;2022-10-16T07:31:40;8.70;99.90
7686;DHT22;3885;51.474;-2.576;2022-10-16T07:34:07;8.70;99.90
7686;DHT22;3885;51.474;-2.576;2022-10-16T07:36:34;8.70;99.90
7686;DHT22;3885;51.474;-2.576;2022-10-16T07:39:01;8.70;99.90
7686;DHT22;3885;51.474;-2.576;2022-10-16T07:41:30;8.70;99.90
7686;DHT22;3885;51.474;-2.576;2022-10-16T07:46:26;8.80;99.90
7686;DHT22;3885;51.474;-2.576;2022-10-16T07:51:22;8.80;99.90
7686;DHT22;3885;51.474;-2.576;2022-10-16T07:53:49;8.90;99.90
7686;DHT22;3885;51.474;-2.576;2022-10-16T07:56:17;9.00;99.90
7686;DHT22;3885;51.474;-2.576;2022-10-16T07:58:46;9.10;99.90
7686;DHT22;3885;51.474;-2.576;2022-10-16T08:01:15;9.20;99.90
7686;DHT22;3885;51.474;-2.576;2022-10-16T08:03:44;9.40;99.90
7686;DHT22;3885;51.474;-2.576;2022-10-16T08:08:38;9.70;99.90
7686;DHT22;3885;51.474;-2.576;2022-10-16T08:11:05;9.80;99.90
7686;DHT22;3885;51.474;-2.576;2022-10-16T08:16:01;10.10;99.90
7686;DHT22;3885;51.474;-2.576;2022-10-16T08:18:29;10.30;99.90
7686;DHT22;3885;51.474;-2.576;2022-10-16T08:20:56;10.30;99.90
7686;DHT22;3885;51.474;-2.576;2022-10-16T08:23:24;10.40;99.90
7686;DHT22;3885;51.474;-2.576;2022-10-16T08:25:51;10.60;99.90
7686;DHT22;3885;51.474;-2.576;2022-10-16T08:28:19;10.80;99.90
7686;DHT22;3885;51.474;-2.576;2022-10-16T08:30:46;11.00;99.90
7686;DHT22;3885;51.474;-2.576;2022-10-16T08:33:14;11.10;99.90
7686;DHT22;3885;51.474;-2.576;2022-10-16T08:38:09;11.30;99.90
7686;DHT22;3885;51.474;-2.576;2022-10-16T08:40:36;11.50;99.90
7686;DHT22;3885;51.474;-2.576;2022-10-16T08:43:21;11.60;99.90
7686;DHT22;3885;51.474;-2.576;2022-10-16T08:46:17;11.80;99.90
7686;DHT22;3885;51.474;-2.576;2022-10-16T08:48:50;11.90;99.90
7686;DHT22;3885;51.474;-2.576;2022-10-16T08:51:20;12.00;99.90
7686;DHT22;3885;51.474;-2.576;2022-10-16T08:53:52;12.10;99.90
7686;DHT22;3885;51.474;-2.576;2022-10-16T08:56:20;12.20;99.90
7686;DHT22;3885;51.474;-2.576;2022-10-16T09:01:16;12.30;99.90
7686;DHT22;3885;51.474;-2.576;2022-10-16T09:04:04;12.50;99.90
7686;DHT22;3885;51.474;-2.576;2022-10-16T09:06:44;12.70;99.90
7686;DHT22;3885;51.474;-2.576;2022-10-16T09:12:12;13.00;99.90
7686;DHT22;3885;51.474;-2.576;2022-10-16T09:14:50;13.10;99.90
7686;DHT22;3885;51.474;-2.576;2022-10-16T09:17:30;13.30;99.90
7686;DHT22;3885;51.474;-2.576;2022-10-16T09:20:27;13.40;99.90
7686;DHT22;3885;51.474;-2.576;2022-10-16T09:23:08;13.50;99.90
7686;DHT22;3885;51.474;-2.576;2022-10-16T09:25:39;13.50;99.90
7686;DHT22;3885;51.474;-2.576;2022-10-16T09:28:08;13.50;99.90
7686;DHT22;3885;51.474;-2.576;2022-10-16T09:33:03;13.70;99.90
7686;DHT22;3885;51.474;-2.576;2022-10-16T09:35:36;13.70;99.90
7686;DHT22;3885;51.474;-2.576;2022-10-16T09:38:04;13.80;99.90
7686;DHT22;3885;51.474;-2.576;2022-10-16T09:40:34;13.90;99.90
7686;DHT22;3885;51.474;-2.576;2022-10-16T09:43:12;14.10;99.90
7686;DHT22;3885;51.474;-2.576;2022-10-16T09:45:41;14.20;99.90
7686;DHT22;3885;51.474;-2.576;2022-10-16T09:48:12;14.30;99.90
7686;DHT22;3885;51.474;-2.576;2022-10-16T09:50:40;14.30;99.90
7686;DHT22;3885;51.474;-2.576;2022-10-16T09:53:11;14.40;99.90
7686;DHT22;3885;51.474;-2.576;2022-10-16T09:55:48;14.50;99.90
7686;DHT22;3885;51.474;-2.576;2022-10-16T09:58:16;14.70;99.90
7686;DHT22;3885;51.474;-2.576;2022-10-16T10:00:49;15.00;99.90
7686;DHT22;3885;51.474;-2.576;2022-10-16T10:03:30;15.20;99.90
7686;DHT22;3885;51.474;-2.576;2022-10-16T10:06:03;15.40;99.90
7686;DHT22;3885;51.474;-2.576;2022-10-16T10:10:59;15.40;99.90
7686;DHT22;3885;51.474;-2.576;2022-10-16T10:15:53;15.50;99.90
7686;DHT22;3885;51.474;-2.576;2022-10-16T10:18:21;15.50;99.90
7686;DHT22;3885;51.474;-2.576;2022-10-16T10:20:57;15.60;99.90
7686;DHT22;3885;51.474;-2.576;2022-10-16T10:23:28;15.70;99.90
7686;DHT22;3885;51.474;-2.576;2022-10-16T10:25:59;15.70;99.90
7686;DHT22;3885;51.474;-2.576;2022-10-16T10:28:54;15.60;99.90
7686;DHT22;3885;51.474;-2.576;2022-10-16T10:31:26;15.80;99.90
7686;DHT22;3885;51.474;-2.576;2022-10-16T10:34:00;15.80;99.90
7686;DHT22;3885;51.474;-2.576;2022-10-16T10:36:34;16.00;99.90
7686;DHT22;3885;51.474;-2.576;2022-10-16T10:39:07;16.10;99.90
7686;DHT22;3885;51.474;-2.576;2022-10-16T10:41:59;16.10;99.90
7686;DHT22;3885;51.474;-2.576;2022-10-16T10:44:43;16.10;99.90
7686;DHT22;3885;51.474;-2.576;2022-10-16T10:47:22;16.10;99.90
7686;DHT22;3885;51.474;-2.576;2022-10-16T10:49:56;16.00;99.90
7686;DHT22;3885;51.474;-2.576;2022-10-16T10:52:38;16.00;99.90
7686;DHT22;3885;51.474;-2.576;2022-10-16T10:55:18;16.20;99.90
7686;DHT22;3885;51.474;-2.576;2022-10-16T10:58:01;16.40;99.90
7686;DHT22;3885;51.474;-2.576;2022-10-16T11:00:42;16.30;99.90
7686;DHT22;3885;51.474;-2.576;2022-10-16T11:03:22;16.40;99.90
7686;DHT22;3885;51.474;-2.576;2022-10-16T11:05:55;16.40;99.90
7686;DHT22;3885;51.474;-2.576;2022-10-16T11:08:27;16.40;99.90
7686;DHT22;3885;51.474;-2.576;2022-10-16T11:11:01;16.50;99.90
7686;DHT22;3885;51.474;-2.576;2022-10-16T11:13:33;16.60;99.90
7686;DHT22;3885;51.474;-2.576;2022-10-16T11:16:10;16.60;99.90
7686;DHT22;3885;51.474;-2.576;2022-10-16T11:18:45;16.60;99.90
7686;DHT22;3885;51.474;-2.576;2022-10-16T11:21:16;16.70;99.90
7686;DHT22;3885;51.474;-2.576;2022-10-16T11:23:48;16.70;99.90
7686;DHT22;3885;51.474;-2.576;2022-10-16T11:26:22;16.80;99.90
7686;DHT22;3885;51.474;-2.576;2022-10-16T11:28:54;16.80;99.90
7686;DHT22;3885;51.474;-2.576;2022-10-16T11:31:27;16.90;99.90
7686;DHT22;3885;51.474;-2.576;2022-10-16T11:34:02;16.80;99.90
7686;DHT22;3885;51.474;-2.576;2022-10-16T11:36:35;16.70;99.90
7686;DHT22;3885;51.474;-2.576;2022-10-16T11:39:11;16.60;99.90
7686;DHT22;3885;51.474;-2.576;2022-10-16T11:41:48;16.70;99.90
7686;DHT22;3885;51.474;-2.576;2022-10-16T11:44:38;16.80;99.90
7686;DHT22;3885;51.474;-2.576;2022-10-16T11:47:17;16.90;99.90
7686;DHT22;3885;51.474;-2.576;2022-10-16T11:49:47;16.90;99.90
7686;DHT22;3885;51.474;-2.576;2022-10-16T11:52:19;16.90;99.90
7686;DHT22;3885;51.474;-2.576;2022-10-16T11:54:50;16.70;99.90
7686;DHT22;3885;51.474;-2.576;2022-10-16T11:57:23;16.80;99.90
7686;DHT22;3885;51.474;-2.576;2022-10-16T11:59:54;16.90;99.90
7686;DHT22;3885;51.474;-2.576;2022-10-16T12:02:34;17.10;99.90
7686;DHT22;3885;51.474;-2.576;2022-10-16T12:05:14;17.00;99.90
7686;DHT22;3885;51.474;-2.576;2022-10-16T12:07:47;16.90;99.90
7686;DHT22;3885;51.474;-2.576;2022-10-16T12:10:21;17.00;99.90
7686;DHT22;3885;51.474;-2.576;2022-10-16T12:12:50;17.20;99.90
7686;DHT22;3885;51.474;-2.576;2022-10-16T12:15:23;17.50;99.90
7686;DHT22;3885;51.474;-2.576;2022-10-16T12:17:51;17.60;99.90
7686;DHT22;3885;51.474;-2.576;2022-10-16T12:20:27;17.60;99.90
7686;DHT22;3885;51.474;-2.576;2022-10-16T12:22:57;17.60;99.90
7686;DHT22;3885;51.474;-2.576;2022-10-16T12:25:27;17.70;99.90
7686;DHT22;3885;51.474;-2.576;2022-10-16T12:28:02;17.70;99.90
7686;DHT22;3885;51.474;-2.576;2022-10-16T12:30:32;17.60;99.90
7686;DHT22;3885;51.474;-2.576;2022-10-16T12:33:02;17.20;99.90
7686;DHT22;3885;51.474;-2.576;2022-10-16T12:35:31;17.20;99.90
7686;DHT22;3885;51.474;-2.576;2022-10-16T12:38:08;17.30;99.90
7686;DHT22;3885;51.474;-2.576;2022-10-16T12:43:26;17.30;99.90
7686;DHT22;3885;51.474;-2.576;2022-10-16T12:46:02;17.20;99.90
7686;DHT22;3885;51.474;-2.576;2022-10-16T12:53:26;17.00;99.90
7686;DHT22;3885;51.474;-2.576;2022-10-16T12:56:03;17.00;99.90
7686;DHT22;3885;51.474;-2.576;2022-10-16T12:58:45;17.20;99.90
7686;DHT22;3885;51.474;-2.576;2022-10-16T13:01:27;17.40;99.90
7686;DHT22;3885;51.474;-2.576;2022-10-16T13:04:20;17.40;99.90
7686;DHT22;3885;51.474;-2.576;2022-10-16T13:06:55;17.30;99.90
7686;DHT22;3885;51.474;-2.576;2022-10-16T13:09:33;17.40;99.90
7686;DHT22;3885;51.474;-2.576;2022-10-16T13:12:26;17.60;99.90
7686;DHT22;3885;51.474;-2.576;2022-10-16T13:15:19;17.70;99.90
7686;DHT22;3885;51.474;-2.576;2022-10-16T13:17:54;17.70;99.90
7686;DHT22;3885;51.474;-2.576;2022-10-16T13:20:30;17.40;99.90
7686;DHT22;3885;51.474;-2.576;2022-10-16T13:23:06;17.40;99.90
7686;DHT22;3885;51.474;-2.576;2022-10-16T13:25:47;17.40;99.90
7686;DHT22;3885;51.474;-2.576;2022-10-16T13:28:27;17.50;99.90
7686;DHT22;3885;51.474;-2.576;2022-10-16T13:30:58;17.50;99.90
7686;DHT22;3885;51.474;-2.576;2022-10-16T13:33:31;17.50;99.90
7686;DHT22;3885;51.474;-2.576;2022-10-16T13:35:59;17.40;99.90
7686;DHT22;3885;51.474;-2.576;2022-10-16T13:38:27;17.50;99.90
7686;DHT22;3885;51.474;-2.576;2022-10-16T13:40:56;17.50;99.90
7686;DHT22;3885;51.474;-2.576;2022-10-16T13:43:26;17.40;99.90
7686;DHT22;3885;51.474;-2.576;2022-10-16T13:46:00;17.40;99.90
7686;DHT22;3885;51.474;-2.576;2022-10-16T13:48:29;17.30;99.90
7686;DHT22;3885;51.474;-2.576;2022-10-16T13:51:03;17.30;99.90
7686;DHT22;3885;51.474;-2.576;2022-10-16T13:53:31;17.20;99.90
7686;DHT22;3885;51.474;-2.576;2022-10-16T13:55:59;17.20;99.90
7686;DHT22;3885;51.474;-2.576;2022-10-16T14:00:56;17.30;99.90
7686;DHT22;3885;51.474;-2.576;2022-10-16T14:03:25;17.40;99.90
7686;DHT22;3885;51.474;-2.576;2022-10-16T14:05:55;17.40;99.90
7686;DHT22;3885;51.474;-2.576;2022-10-16T14:08:25;17.40;99.90
7686;DHT22;3885;51.474;-2.576;2022-10-16T14:10:54;17.30;99.90
7686;DHT22;3885;51.474;-2.576;2022-10-16T14:13:28;17.30;99.90
7686;DHT22;3885;51.474;-2.576;2022-10-16T14:18:26;17.20;99.90
7686;DHT22;3885;51.474;-2.576;2022-10-16T14:23:23;17.00;99.90
7686;DHT22;3885;51.474;-2.576;2022-10-16T14:26:06;16.90;99.90
7686;DHT22;3885;51.474;-2.576;2022-10-16T14:28:32;16.90;99.90
7686;DHT22;3885;51.474;-2.576;2022-10-16T14:31:01;16.90;99.90
7686;DHT22;3885;51.474;-2.576;2022-10-16T14:33:33;16.90;99.90
7686;DHT22;3885;51.474;-2.576;2022-10-16T14:36:03;16.90;99.90
7686;DHT22;3885;51.474;-2.576;2022-10-16T14:38:32;16.80;99.90
7686;DHT22;3885;51.474;-2.576;2022-10-16T14:40:59;16.90;99.90
7686;DHT22;3885;51.474;-2.576;2022-10-16T14:43:32;16.90;99.90
7686;DHT22;3885;51.474;-2.576;2022-10-16T14:46:01;16.80;99.90
7686;DHT22;3885;51.474;-2.576;2022-10-16T14:50:57;16.70;99.90
7686;DHT22;3885;51.474;-2.576;2022-10-16T14:53:24;16.70;99.90
7686;DHT22;3885;51.474;-2.576;2022-10-16T14:58:20;16.70;99.90
7686;DHT22;3885;51.474;-2.576;2022-10-16T15:00:47;16.70;99.90
7686;DHT22;3885;51.474;-2.576;2022-10-16T15:08:11;16.70;99.90
7686;DHT22;3885;51.474;-2.576;2022-10-16T15:10:40;16.70;99.90
7686;DHT22;3885;51.474;-2.576;2022-10-16T15:13:11;16.70;99.90
7686;DHT22;3885;51.474;-2.576;2022-10-16T15:15:42;16.70;99.90
7686;DHT22;3885;51.474;-2.576;2022-10-16T15:20:38;16.60;99.90
7686;DHT22;3885;51.474;-2.576;2022-10-16T15:23:10;16.50;99.90
7686;DHT22;3885;51.474;-2.576;2022-10-16T15:25:42;16.50;99.90
7686;DHT22;3885;51.474;-2.576;2022-10-16T15:28:10;16.40;99.90
7686;DHT22;3885;51.474;-2.576;2022-10-16T15:30:38;16.40;99.90
7686;DHT22;3885;51.474;-2.576;2022-10-16T15:33:09;16.40;99.90
7686;DHT22;3885;51.474;-2.576;2022-10-16T15:38:04;16.40;99.90
7686;DHT22;3885;51.474;-2.576;2022-10-16T15:40:31;16.40;99.90
7686;DHT22;3885;51.474;-2.576;2022-10-16T15:42:59;16.40;99.90
7686;DHT22;3885;51.474;-2.576;2022-10-16T15:50:21;16.30;99.90
7686;DHT22;3885;51.474;-2.576;2022-10-16T15:55:15;16.30;99.90
7686;DHT22;3885;51.474;-2.576;2022-10-16T16:00:14;16.30;99.90
7686;DHT22;3885;51.474;-2.576;2022-10-16T16:02:42;16.20;99.90
7686;DHT22;3885;51.474;-2.576;2022-10-16T16:05:10;16.20;99.90
7686;DHT22;3885;51.474;-2.576;2022-10-16T16:07:38;16.20;99.90
7686;DHT22;3885;51.474;-2.576;2022-10-16T16:10:07;16.20;99.90
7686;DHT22;3885;51.474;-2.576;2022-10-16T16:15:03;16.10;99.90
7686;DHT22;3885;51.474;-2.576;2022-10-16T16:17:31;16.10;99.90
7686;DHT22;3885;51.474;-2.576;2022-10-16T16:22:26;16.10;99.90
7686;DHT22;3885;51.474;-2.576;2022-10-16T16:27:20;15.90;99.90
7686;DHT22;3885;51.474;-2.576;2022-10-16T16:29:47;16.00;99.90
7686;DHT22;3885;51.474;-2.576;2022-10-16T16:32:14;16.00;99.90
7686;DHT22;3885;51.474;-2.576;2022-10-16T16:34:42;15.90;99.90
7686;DHT22;3885;51.474;-2.576;2022-10-16T16:42:03;15.80;99.90
7686;DHT22;3885;51.474;-2.576;2022-10-16T16:46:59;15.80;99.90
7686;DHT22;3885;51.474;-2.576;2022-10-16T16:51:54;15.70;99.90
7686;DHT22;3885;51.474;-2.576;2022-10-16T16:54:21;15.70;99.90
7686;DHT22;3885;51.474;-2.576;2022-10-16T16:59:16;15.60;99.90
7686;DHT22;3885;51.474;-2.576;2022-10-16T17:01:45;15.50;99.90
7686;DHT22;3885;51.474;-2.576;2022-10-16T17:06:41;15.30;99.90
7686;DHT22;3885;51.474;-2.576;2022-10-16T17:09:09;15.30;99.90
7686;DHT22;3885;51.474;-2.576;2022-10-16T17:11:38;15.30;99.90
7686;DHT22;3885;51.474;-2.576;2022-10-16T17:14:07;15.30;99.90
7686;DHT22;3885;51.474;-2.576;2022-10-16T17:16:36;15.20;99.90
7686;DHT22;3885;51.474;-2.576;2022-10-16T17:19:05;15.20;99.90
7686;DHT22;3885;51.474;-2.576;2022-10-16T17:21:33;15.20;99.90
7686;DHT22;3885;51.474;-2.576;2022-10-16T17:24:00;15.20;99.90
7686;DHT22;3885;51.474;-2.576;2022-10-16T17:26:29;15.10;99.90
7686;DHT22;3885;51.474;-2.576;2022-10-16T17:28:57;15.10;99.90
7686;DHT22;3885;51.474;-2.576;2022-10-16T17:31:27;15.10;99.90
7686;DHT22;3885;51.474;-2.576;2022-10-16T17:36:22;15.00;99.90
7686;DHT22;3885;51.474;-2.576;2022-10-16T17:38:49;15.00;99.90
7686;DHT22;3885;51.474;-2.576;2022-10-16T17:41:17;14.80;99.90
7686;DHT22;3885;51.474;-2.576;2022-10-16T17:43:46;14.90;99.90
7686;DHT22;3885;51.474;-2.576;2022-10-16T17:46:15;14.80;99.90
7686;DHT22;3885;51.474;-2.576;2022-10-16T17:48:44;14.80;99.90
7686;DHT22;3885;51.474;-2.576;2022-10-16T17:51:13;14.70;99.90
7686;DHT22;3885;51.474;-2.576;2022-10-16T17:53:40;14.70;99.90
7686;DHT22;3885;51.474;-2.576;2022-10-16T17:56:09;14.70;99.90
7686;DHT22;3885;51.474;-2.576;2022-10-16T17:58:37;14.80;99.90
7686;DHT22;3885;51.474;-2.576;2022-10-16T18:01:12;14.80;99.90
7686;DHT22;3885;51.474;-2.576;2022-10-16T18:06:07;14.70;99.90
7686;DHT22;3885;51.474;-2.576;2022-10-16T18:08:34;14.70;99.90
7686;DHT22;3885;51.474;-2.576;2022-10-16T18:11:03;14.70;99.90
7686;DHT22;3885;51.474;-2.576;2022-10-16T18:16:00;14.50;99.90
7686;DHT22;3885;51.474;-2.576;2022-10-16T18:18:29;14.50;99.90
7686;DHT22;3885;51.474;-2.576;2022-10-16T18:20:56;14.40;99.90
7686;DHT22;3885;51.474;-2.576;2022-10-16T18:23:23;14.40;99.90
7686;DHT22;3885;51.474;-2.576;2022-10-16T18:25:50;14.40;99.90
7686;DHT22;3885;51.474;-2.576;2022-10-16T18:33:12;14.30;99.90
7686;DHT22;3885;51.474;-2.576;2022-10-16T18:35:40;14.30;99.90
7686;DHT22;3885;51.474;-2.576;2022-10-16T18:38:07;14.30;99.90
7686;DHT22;3885;51.474;-2.576;2022-10-16T18:40:35;14.30;99.90
7686;DHT22;3885;51.474;-2.576;2022-10-16T18:45:29;14.30;99.90
7686;DHT22;3885;51.474;-2.576;2022-10-16T18:50:23;14.40;99.90
7686;DHT22;3885;51.474;-2.576;2022-10-16T18:52:51;14.40;99.90
7686;DHT22;3885;51.474;-2.576;2022-10-16T18:55:18;14.40;99.90
7686;DHT22;3885;51.474;-2.576;2022-10-16T18:57:46;14.40;99.90
7686;DHT22;3885;51.474;-2.576;2022-10-16T19:00:13;14.40;99.90
7686;DHT22;3885;51.474;-2.576;2022-10-16T19:10:05;14.40;99.90
7686;DHT22;3885;51.474;-2.576;2022-10-16T19:12:31;14.40;99.90
7686;DHT22;3885;51.474;-2.576;2022-10-16T19:17:25;14.40;99.90
7686;DHT22;3885;51.474;-2.576;2022-10-16T19:22:20;14.40;99.90
7686;DHT22;3885;51.474;-2.576;2022-10-16T19:25:07;14.50;99.90
7686;DHT22;3885;51.474;-2.576;2022-10-16T19:30:02;14.50;99.90
7686;DHT22;3885;51.474;-2.576;2022-10-16T19:32:31;14.60;99.90
7686;DHT22;3885;51.474;-2.576;2022-10-16T19:34:58;14.60;99.90
7686;DHT22;3885;51.474;-2.576;2022-10-16T19:39:52;14.60;99.90
7686;DHT22;3885;51.474;-2.576;2022-10-16T19:42:20;14.60;99.90
7686;DHT22;3885;51.474;-2.576;2022-10-16T19:44:48;14.70;99.90
7686;DHT22;3885;51.474;-2.576;2022-10-16T19:49:42;14.70;99.90
7686;DHT22;3885;51.474;-2.576;2022-10-16T19:52:09;14.80;99.90
7686;DHT22;3885;51.474;-2.576;2022-10-16T19:59:32;14.90;99.90
7686;DHT22;3885;51.474;-2.576;2022-10-16T20:04:26;15.00;99.90
7686;DHT22;3885;51.474;-2.576;2022-10-16T20:06:53;15.00;99.90
7686;DHT22;3885;51.474;-2.576;2022-10-16T20:09:20;15.10;99.90
7686;DHT22;3885;51.474;-2.576;2022-10-16T20:14:14;15.10;99.90
7686;DHT22;3885;51.474;-2.576;2022-10-16T20:16:42;15.10;99.90
7686;DHT22;3885;51.474;-2.576;2022-10-16T20:19:09;15.10;99.90
7686;DHT22;3885;51.474;-2.576;2022-10-16T20:21:36;15.10;99.90
7686;DHT22;3885;51.474;-2.576;2022-10-16T20:24:04;15.30;99.90
7686;DHT22;3885;51.474;-2.576;2022-10-16T20:26:31;15.30;99.90
7686;DHT22;3885;51.474;-2.576;2022-10-16T20:28:58;15.30;99.90
7686;DHT22;3885;51.474;-2.576;2022-10-16T20:31:28;15.40;99.90
7686;DHT22;3885;51.474;-2.576;2022-10-16T20:33:57;15.60;99.90
7686;DHT22;3885;51.474;-2.576;2022-10-16T20:38:55;15.60;99.90
7686;DHT22;3885;51.474;-2.576;2022-10-16T20:41:23;15.60;99.90
7686;DHT22;3885;51.474;-2.576;2022-10-16T20:43:50;15.60;99.90
7686;DHT22;3885;51.474;-2.576;2022-10-16T20:46:19;15.60;99.90
7686;DHT22;3885;51.474;-2.576;2022-10-16T20:48:46;15.60;99.90